Time;durP1;ratioP1;P1;durP2;ratioP2;P2;SDS_P1;SDS_P2;PMS_P1;PMS_P2;Temp;Humidity;BMP_temperature;BMP_pressure;BME280_temperature;BME280_humidity;BME280_pressure;Samples;Min_cycle;Max_cycle;Signal;HPM_P1;HPM_P2
2021/03/17 00:01:06;;;;;;;2.60;2.00;;;5.80;85.10;;;;;;5079367;28;20041;-74
2021/03/17 00:03:32;;;;;;;2.42;1.90;;;5.80;85.10;;;;;;5079150;28;20456;-74
2021/03/17 00:05:57;;;;;;;3.33;1.90;;;5.80;85.10;;;;;;5077765;28;20099;-75
2021/03/17 00:08:23;;;;;;;3.30;2.22;;;5.80;85.70;;;;;;5078934;28;20025;-74
2021/03/17 00:10:53;;;;;;;2.70;2.10;;;5.80;85.20;;;;;;5077585;28;20017;-74
2021/03/17 00:13:23;;;;;;;2.15;1.83;;;5.80;85.20;;;;;;5077683;28;20488;-74
2021/03/17 00:15:50;;;;;;;2.35;2.15;;;5.80;85.30;;;;;;5079031;28;20027;-74
2021/03/17 00:18:16;;;;;;;2.33;2.00;;;5.70;85.20;;;;;;5077767;28;20016;-74
2021/03/17 00:20:42;;;;;;;43.40;3.88;;;5.70;85.30;;;;;;5077671;28;20017;-74
2021/03/17 00:23:08;;;;;;;1.98;1.80;;;5.60;85.40;;;;;;5077527;28;20435;-74
2021/03/17 00:25:39;;;;;;;2.10;1.90;;;5.70;85.70;;;;;;5075523;28;20055;-74
2021/03/17 00:28:06;;;;;;;1.90;1.70;;;5.70;85.60;;;;;;5074731;28;20468;-75
2021/03/17 00:30:33;;;;;;;2.33;1.80;;;5.70;86.10;;;;;;5075882;28;20056;-74
2021/03/17 00:33:00;;;;;;;2.58;1.92;;;5.60;85.40;;;;;;5074702;28;20021;-73
2021/03/17 00:35:27;;;;;;;1.90;1.80;;;5.60;85.40;;;;;;5074473;28;20021;-74
2021/03/17 00:37:53;;;;;;;2.90;2.20;;;5.60;85.50;;;;;;5075606;28;20016;-73
2021/03/17 00:40:19;;;;;;;2.10;1.90;;;5.70;85.60;;;;;;5075373;28;20439;-73
2021/03/17 00:42:45;;;;;;;2.50;1.95;;;5.70;85.50;;;;;;5075495;28;20025;-73
2021/03/17 00:45:11;;;;;;;1.75;1.65;;;5.70;85.40;;;;;;5074135;28;20434;-74
2021/03/17 00:47:37;;;;;;;2.65;1.90;;;5.70;85.40;;;;;;5074272;28;20029;-73
2021/03/17 00:50:05;;;;;;;2.35;2.13;;;5.70;85.40;;;;;;5075999;28;20017;-74
2021/03/17 00:52:31;;;;;;;2.30;2.05;;;5.70;85.40;;;;;;5075584;28;20025;-74
2021/03/17 00:54:56;;;;;;;2.10;1.88;;;5.70;85.40;;;;;;5074167;28;20017;-73
2021/03/17 00:57:22;;;;;;;2.78;2.33;;;5.70;85.40;;;;;;5073958;28;20119;-73
2021/03/17 00:59:48;;;;;;;2.45;2.00;;;5.70;85.40;;;;;;5075873;28;20032;-74
2021/03/17 01:02:13;;;;;;;2.08;1.88;;;5.70;85.40;;;;;;5073955;28;20028;-73
2021/03/17 01:04:39;;;;;;;3.20;2.10;;;5.70;85.50;;;;;;5075688;28;20349;-74
2021/03/17 01:07:08;;;;;;;2.63;2.20;;;5.70;85.50;;;;;;5073986;28;20021;-74
2021/03/17 01:09:34;;;;;;;2.50;2.20;;;5.80;85.50;;;;;;5073830;28;20017;-74
2021/03/17 01:12:00;;;;;;;2.10;1.90;;;5.80;85.40;;;;;;5075557;28;20013;-74
2021/03/17 01:14:26;;;;;;;2.53;2.22;;;5.80;85.40;;;;;;5073853;28;20112;-74
2021/03/17 01:16:51;;;;;;;2.28;2.08;;;5.80;85.30;;;;;;5073641;28;20488;-74
2021/03/17 01:19:17;;;;;;;2.10;1.90;;;5.70;85.40;;;;;;5075333;28;20024;-74
2021/03/17 01:21:43;;;;;;;2.85;1.80;;;5.80;85.40;;;;;;5074506;28;20492;-74
2021/03/17 01:24:09;;;;;;;2.05;1.85;;;5.70;85.40;;;;;;5073681;28;20392;-74
2021/03/17 01:26:34;;;;;;;2.40;2.00;;;5.70;85.50;;;;;;5073637;28;20074;-74
2021/03/17 01:29:00;;;;;;;3.20;1.90;;;5.70;85.50;;;;;;5074782;28;20099;-74
2021/03/17 01:31:25;;;;;;;2.55;2.00;;;5.70;85.50;;;;;;5074371;28;20043;-74
2021/03/17 01:33:51;;;;;;;2.05;1.80;;;5.70;85.40;;;;;;5073319;28;20028;-74
2021/03/17 01:36:17;;;;;;;2.63;2.08;;;5.80;85.50;;;;;;5073372;28;20495;-74
2021/03/17 01:38:42;;;;;;;1.90;1.80;;;5.80;85.50;;;;;;5073080;28;20021;-73
2021/03/17 01:41:08;;;;;;;2.55;2.10;;;5.80;85.50;;;;;;5074481;28;20025;-73
2021/03/17 01:43:34;;;;;;;2.92;2.30;;;5.80;85.40;;;;;;5074970;28;20070;-74
2021/03/17 01:45:59;;;;;;;2.33;2.00;;;5.80;85.50;;;;;;5073040;28;20074;-73
2021/03/17 01:48:26;;;;;;;2.30;1.80;;;5.80;85.50;;;;;;5073023;28;20020;-73
2021/03/17 01:50:55;;;;;;;1.85;1.75;;;5.80;85.50;;;;;;5074139;28;20496;-73
2021/03/17 01:53:30;;;;;;;2.53;2.00;;;5.80;85.40;;;;;;5074231;28;20064;-74
2021/03/17 01:55:56;;;;;;;2.03;1.83;;;5.80;85.40;;;;;;5072800;28;20047;-73
2021/03/17 01:58:22;;;;;;;1.80;1.70;;;5.80;85.40;;;;;;5074170;28;20048;-73
2021/03/17 02:00:48;;;;;;;1.80;1.70;;;5.80;85.40;;;;;;5073966;28;20029;-74
2021/03/17 02:03:14;;;;;;;2.40;1.77;;;5.80;85.40;;;;;;5072597;28;20021;-73
2021/03/17 02:05:43;;;;;;;1.95;1.75;;;5.90;85.50;;;;;;5072534;28;20047;-74
2021/03/17 02:08:21;;;;;;;1.80;1.70;;;5.90;85.40;;;;;;5072533;28;20035;-74
2021/03/17 02:10:47;;;;;;;2.22;1.98;;;5.90;85.40;;;;;;5073644;28;20032;-73
2021/03/17 02:13:31;;;;;;;2.00;1.80;;;5.90;85.40;;;;;;5072545;28;20020;-73
2021/03/17 02:16:18;;;;;;;2.25;1.83;;;5.90;85.40;;;;;;5072576;28;20017;-74
2021/03/17 02:18:56;;;;;;;2.95;2.10;;;5.90;85.40;;;;;;5073591;28;20027;-73
2021/03/17 02:21:47;;;;;;;2.70;1.88;;;5.90;85.50;;;;;;5073367;28;20483;-73
2021/03/17 02:24:13;;;;;;;1.77;1.67;;;6.00;85.40;;;;;;5074048;28;20025;-73
2021/03/17 02:27:01;;;;;;;2.10;1.90;;;6.00;85.30;;;;;;5072405;28;20434;-73
2021/03/17 02:29:44;;;;;;;2.20;2.00;;;6.10;85.40;;;;;;5073994;28;20027;-73
2021/03/17 02:32:37;;;;;;;2.30;2.10;;;6.10;85.40;;;;;;5072085;28;20429;-73
2021/03/17 02:35:08;;;;;;;2.45;2.20;;;6.10;85.40;;;;;;5072102;28;20024;-73
2021/03/17 02:37:37;;;;;;;3.20;2.40;;;6.10;85.40;;;;;;5071911;28;20059;-74
2021/03/17 02:40:17;;;;;;;2.15;1.95;;;6.10;85.40;;;;;;5072257;28;20029;-74
2021/03/17 02:43:10;;;;;;;2.65;2.40;;;6.10;85.50;;;;;;5073706;28;20028;-74
2021/03/17 02:45:41;;;;;;;3.20;2.60;;;6.10;85.50;;;;;;5073972;28;20023;-73
2021/03/17 02:48:25;;;;;;;2.70;2.50;;;6.20;85.60;;;;;;5073568;28;20020;-73
2021/03/17 02:50:54;;;;;;;2.70;2.50;;;6.20;85.50;;;;;;5072082;28;20452;-74
2021/03/17 02:53:24;;;;;;;3.08;2.78;;;6.20;85.50;;;;;;5073319;28;20028;-74
2021/03/17 02:56:00;;;;;;;2.92;2.63;;;6.20;85.50;;;;;;5072192;28;20547;-73
2021/03/17 02:58:28;;;;;;;2.75;2.55;;;6.20;85.70;;;;;;5072176;28;20099;-73
2021/03/17 03:00:54;;;;;;;2.97;2.20;;;6.20;85.60;;;;;;5073285;28;20025;-74
2021/03/17 03:03:21;;;;;;;2.60;2.40;;;6.20;85.70;;;;;;5071984;28;20480;-74
2021/03/17 03:05:50;;;;;;;3.08;2.78;;;6.20;85.90;;;;;;5073000;28;20377;-73
2021/03/17 03:08:16;;;;;;;2.88;2.17;;;6.20;85.80;;;;;;5071888;28;20464;-73
2021/03/17 03:10:44;;;;;;;2.40;2.20;;;6.20;85.90;;;;;;5071571;28;20439;-74
2021/03/17 03:13:10;;;;;;;2.63;2.42;;;6.20;86.00;;;;;;5071710;28;20071;-73
2021/03/17 03:15:37;;;;;;;2.38;2.08;;;6.20;86.00;;;;;;5071408;28;20017;-73
2021/03/17 03:18:05;;;;;;;2.70;2.50;;;6.20;86.00;;;;;;5072481;28;20058;-73
2021/03/17 03:20:34;;;;;;;2.60;2.40;;;6.20;86.10;;;;;;5072763;28;20064;-73
2021/03/17 03:23:01;;;;;;;2.70;2.42;;;6.30;86.10;;;;;;5071441;28;20045;-73
2021/03/17 03:25:27;;;;;;;3.40;2.53;;;6.30;86.10;;;;;;5071499;28;20043;-73
2021/03/17 03:27:54;;;;;;;3.63;2.55;;;6.30;86.00;;;;;;5072820;28;20430;-73
2021/03/17 03:30:27;;;;;;;2.60;2.40;;;6.30;86.10;;;;;;5072869;28;20025;-73
2021/03/17 03:32:53;;;;;;;2.40;2.20;;;6.30;86.10;;;;;;5072829;28;20029;-73
2021/03/17 03:35:21;;;;;;;1.98;1.88;;;6.20;86.10;;;;;;5072875;28;20027;-74
2021/03/17 03:37:47;;;;;;;2.20;2.10;;;6.20;86.10;;;;;;5072737;28;20029;-74
2021/03/17 03:40:16;;;;;;;2.15;2.05;;;6.30;86.30;;;;;;5072951;28;20096;-73
2021/03/17 03:42:43;;;;;;;2.38;2.17;;;6.30;86.30;;;;;;5072621;28;20032;-74
2021/03/17 03:45:11;;;;;;;2.70;2.50;;;6.30;86.10;;;;;;5071486;28;20069;-73
2021/03/17 03:47:37;;;;;;;2.20;2.00;;;6.30;86.10;;;;;;5071420;28;20031;-73
2021/03/17 03:50:04;;;;;;;2.20;2.00;;;6.30;86.10;;;;;;5073117;28;20084;-73
2021/03/17 03:52:40;;;;;;;2.08;1.88;;;6.20;86.20;;;;;;5071152;28;20035;-73
2021/03/17 03:55:21;;;;;;;1.95;1.85;;;6.30;86.30;;;;;;5073077;28;20015;-73
2021/03/17 03:57:50;;;;;;;1.83;1.70;;;6.30;86.40;;;;;;5072557;28;20039;-74
2021/03/17 04:00:21;;;;;;;2.10;1.90;;;6.30;86.20;;;;;;5072611;28;20070;-73
2021/03/17 04:02:50;;;;;;;1.92;1.83;;;6.30;86.30;;;;;;5076159;28;20036;-73
2021/03/17 04:05:20;;;;;;;1.92;1.73;;;6.30;86.30;;;;;;5076334;28;20427;-74
2021/03/17 04:07:48;;;;;;;1.60;1.50;;;6.30;86.30;;;;;;5074991;28;20519;-74
2021/03/17 04:10:16;;;;;;;1.90;1.80;;;6.40;86.30;;;;;;5076607;28;20456;-74
2021/03/17 04:12:44;;;;;;;1.60;1.50;;;6.40;86.20;;;;;;5076155;28;20502;-73
2021/03/17 04:15:14;;;;;;;1.75;1.45;;;6.40;86.20;;;;;;5074790;28;20497;-73
2021/03/17 04:17:54;;;;;;;1.55;1.45;;;6.40;86.20;;;;;;5074753;28;20021;-74
2021/03/17 04:20:28;;;;;;;2.78;2.03;;;6.40;86.20;;;;;;5075165;28;20021;-74
2021/03/17 04:22:55;;;;;;;1.85;1.70;;;6.40;86.20;;;;;;5074813;28;20056;-73
2021/03/17 04:25:22;;;;;;;2.00;1.80;;;6.30;86.20;;;;;;5075884;28;20024;-73
2021/03/17 04:27:51;;;;;;;1.70;1.60;;;6.30;86.30;;;;;;5075705;28;20020;-74
2021/03/17 04:30:19;;;;;;;1.88;1.52;;;6.30;86.40;;;;;;5075790;28;20487;-73
2021/03/17 04:32:47;;;;;;;2.45;1.60;;;6.30;86.40;;;;;;5075717;28;20129;-74
2021/03/17 04:35:15;;;;;;;1.60;1.50;;;6.30;86.40;;;;;;5075874;28;20016;-73
2021/03/17 04:37:43;;;;;;;1.83;1.73;;;6.30;86.40;;;;;;5074203;28;20028;-73
2021/03/17 04:40:10;;;;;;;1.92;1.73;;;6.30;86.50;;;;;;5074442;28;20024;-74
2021/03/17 04:42:38;;;;;;;1.90;1.58;;;6.30;86.60;;;;;;5074374;28;20020;-73
2021/03/17 04:45:04;;;;;;;1.70;1.60;;;6.30;86.70;;;;;;5074215;28;20116;-74
2021/03/17 04:47:31;;;;;;;1.70;1.60;;;6.30;86.60;;;;;;5074087;28;20025;-74
2021/03/17 04:49:57;;;;;;;1.60;1.50;;;6.30;86.50;;;;;;5075463;28;20029;-74
2021/03/17 04:52:23;;;;;;;2.45;1.90;;;6.30;86.60;;;;;;5074037;28;20020;-73
2021/03/17 04:54:51;;;;;;;1.40;1.30;;;6.30;86.60;;;;;;5074019;28;20019;-74
2021/03/17 04:57:21;;;;;;;1.70;1.60;;;6.30;86.60;;;;;;5075360;28;20024;-74
2021/03/17 04:59:48;;;;;;;1.70;1.60;;;6.30;86.60;;;;;;5074128;28;20029;-74
2021/03/17 05:02:19;;;;;;;1.95;1.80;;;6.30;86.70;;;;;;5074111;28;20082;-74
2021/03/17 05:04:47;;;;;;;1.77;1.67;;;6.30;86.70;;;;;;5075293;28;20029;-74
2021/03/17 05:07:14;;;;;;;1.55;1.45;;;6.30;86.70;;;;;;5073946;28;20020;-74
2021/03/17 05:09:40;;;;;;;1.52;1.42;;;6.40;86.80;;;;;;5075235;28;20037;-74
2021/03/17 05:12:08;;;;;;;1.67;1.58;;;6.30;86.60;;;;;;5074748;28;20027;-74
2021/03/17 05:14:35;;;;;;;3.70;1.70;;;6.30;86.60;;;;;;5075241;28;20400;-74
2021/03/17 05:17:02;;;;;;;1.95;1.60;;;6.40;86.80;;;;;;5073712;28;20075;-74
2021/03/17 05:19:32;;;;;;;1.60;1.50;;;6.40;86.70;;;;;;5073614;28;20362;-74
2021/03/17 05:22:15;;;;;;;2.15;1.40;;;6.40;86.80;;;;;;5074411;28;20048;-74
2021/03/17 05:24:41;;;;;;;1.83;1.40;;;6.40;86.80;;;;;;5073486;28;20043;-74
2021/03/17 05:27:15;;;;;;;1.58;1.48;;;6.40;86.70;;;;;;5073539;28;20104;-74
2021/03/17 05:29:40;;;;;;;;;;;6.30;86.80;;;;;;5073876;28;20036;-75
2021/03/17 05:32:07;;;;;;;1.40;1.30;;;6.20;86.90;;;;;;5074865;28;20217;-73
2021/03/17 05:34:54;;;;;;;1.60;1.50;;;6.10;87.10;;;;;;5073376;28;20035;-74
2021/03/17 05:37:20;;;;;;;1.30;1.17;;;6.00;87.40;;;;;;5075209;28;20476;-73
2021/03/17 05:39:46;;;;;;;2.17;1.42;;;6.00;87.40;;;;;;5074699;28;20020;-73
2021/03/17 05:42:14;;;;;;;1.67;1.25;;;6.00;87.80;;;;;;5073266;28;20491;-73
2021/03/17 05:44:40;;;;;;;2.10;1.30;;;5.90;87.80;;;;;;5074728;28;20075;-73
2021/03/17 05:47:08;;;;;;;1.75;1.40;;;5.90;87.80;;;;;;5073228;28;20021;-74
2021/03/17 05:49:37;;;;;;;1.70;1.20;;;5.90;87.80;;;;;;5072977;28;20031;-74
2021/03/17 05:52:03;;;;;;;1.42;1.33;;;5.90;87.90;;;;;;5073032;28;20024;-74
2021/03/17 05:54:30;;;;;;;1.70;1.40;;;5.90;87.90;;;;;;5074199;28;20028;-74
2021/03/17 05:56:56;;;;;;;3.25;1.60;;;5.90;87.90;;;;;;5073080;28;20024;-74
2021/03/17 05:59:22;;;;;;;2.53;1.63;;;6.00;87.90;;;;;;5074656;28;20073;-74
2021/03/17 06:01:47;;;;;;;1.90;1.33;;;6.00;87.90;;;;;;5074182;28;20033;-74
2021/03/17 06:04:15;;;;;;;1.17;1.08;;;6.00;87.90;;;;;;5074063;28;20035;-75
2021/03/17 06:06:44;;;;;;;1.50;1.40;;;6.00;87.80;;;;;;5074074;28;20178;-74
2021/03/17 06:09:10;;;;;;;2.20;1.38;;;6.00;87.90;;;;;;5073308;28;20024;-74
2021/03/17 06:11:38;;;;;;;3.17;1.40;;;6.00;87.80;;;;;;5072750;28;20028;-74
2021/03/17 06:14:07;;;;;;;3.03;1.58;;;6.10;87.80;;;;;;5072699;28;20036;-74
2021/03/17 06:16:37;;;;;;;3.15;1.70;;;6.10;87.70;;;;;;5073770;28;20028;-74
2021/03/17 06:19:03;;;;;;;1.50;1.40;;;6.10;87.70;;;;;;5073755;28;20029;-73
2021/03/17 06:21:29;;;;;;;3.55;1.77;;;6.10;87.60;;;;;;5073776;28;20380;-74
2021/03/17 06:23:56;;;;;;;2.65;1.98;;;6.10;87.50;;;;;;5073004;28;20032;-74
2021/03/17 06:26:23;;;;;;;2.22;1.50;;;6.10;87.50;;;;;;5072397;28;20028;-74
2021/03/17 06:28:48;;;;;;;2.95;1.95;;;6.10;87.50;;;;;;5072308;28;20036;-74
2021/03/17 06:31:14;;;;;;;1.88;1.50;;;6.10;87.50;;;;;;5073624;28;20047;-74
2021/03/17 06:33:44;;;;;;;2.30;1.80;;;6.10;87.40;;;;;;5073750;28;20111;-74
2021/03/17 06:36:19;;;;;;;2.25;1.63;;;6.10;87.30;;;;;;5072273;28;20487;-74
2021/03/17 06:38:46;;;;;;;1.98;1.77;;;6.10;87.30;;;;;;5072010;28;20064;-73
2021/03/17 06:41:13;;;;;;;3.25;1.70;;;6.20;87.30;;;;;;5073320;28;20446;-73
2021/03/17 06:43:44;;;;;;;2.03;1.70;;;6.20;87.30;;;;;;5073368;28;20071;-74
2021/03/17 06:46:13;;;;;;;2.72;1.90;;;6.30;87.20;;;;;;5071962;28;20444;-74
2021/03/17 06:48:39;;;;;;;4.30;1.70;;;6.30;87.10;;;;;;5072044;28;20024;-74
2021/03/17 06:51:15;;;;;;;1.83;1.70;;;6.30;87.10;;;;;;5073340;28;20029;-74
2021/03/17 06:53:46;;;;;;;2.17;1.80;;;6.30;87.10;;;;;;5071729;28;20028;-74
2021/03/17 06:56:22;;;;;;;2.80;1.50;;;6.30;87.20;;;;;;5071568;28;20021;-74
2021/03/17 06:58:51;;;;;;;2.47;1.63;;;6.30;87.10;;;;;;5073186;28;20020;-74
2021/03/17 07:01:42;;;;;;;1.75;1.30;;;6.20;86.70;;;;;;5073100;28;20051;-74
2021/03/17 07:04:30;;;;;;;2.95;1.25;;;6.20;86.80;;;;;;5072971;28;20063;-74
2021/03/17 07:07:01;;;;;;;2.22;1.27;;;6.10;86.70;;;;;;5073051;28;20468;-74
2021/03/17 07:09:28;;;;;;;3.85;1.30;;;6.20;86.90;;;;;;5072933;28;20420;-74
2021/03/17 07:12:10;;;;;;;1.23;1.02;;;6.20;86.70;;;;;;5073397;28;20029;-74
2021/03/17 07:14:41;;;;;;;1.73;1.15;;;6.20;86.60;;;;;;5071673;28;20040;-74
2021/03/17 07:17:26;;;;;;;1.33;1.10;;;6.20;86.60;;;;;;5071754;28;20115;-74
2021/03/17 07:19:52;;;;;;;3.22;0.93;;;6.30;86.40;;;;;;5071540;28;20024;-74
2021/03/17 07:22:18;;;;;;;1.55;1.00;;;6.40;86.40;;;;;;5072666;28;20496;-74
2021/03/17 07:24:45;;;;;;;1.10;1.00;;;6.40;86.30;;;;;;5072839;28;20036;-74
2021/03/17 07:27:15;;;;;;;1.90;1.20;;;6.50;86.10;;;;;;5072759;28;20041;-74
2021/03/17 07:29:41;;;;;;;1.30;1.20;;;6.50;85.80;;;;;;5071532;28;20044;-74
2021/03/17 07:32:07;;;;;;;0.85;0.85;;;6.60;85.70;;;;;;5071716;28;20021;-74
2021/03/17 07:34:34;;;;;;;5.70;1.20;;;6.60;85.60;;;;;;5071721;28;20020;-73
2021/03/17 07:37:05;;;;;;;2.65;1.00;;;6.70;85.40;;;;;;5075497;28;20024;-74
2021/03/17 07:39:41;;;;;;;3.88;1.00;;;6.70;84.30;;;;;;5075404;28;20078;-74
2021/03/17 07:42:11;;;;;;;2.35;1.00;;;6.60;84.10;;;;;;5075483;28;20031;-74
2021/03/17 07:44:42;;;;;;;1.25;0.88;;;6.60;83.80;;;;;;5075369;28;20051;-74
2021/03/17 07:47:10;;;;;;;1.60;0.57;;;6.70;83.70;;;;;;5075704;28;20029;-75
2021/03/17 07:49:41;;;;;;;2.25;0.80;;;6.70;83.70;;;;;;5076629;28;20065;-74
2021/03/17 07:52:14;;;;;;;2.08;0.90;;;6.70;83.70;;;;;;5076582;28;20040;-73
2021/03/17 07:54:49;;;;;;;1.83;0.88;;;6.70;83.80;;;;;;5075431;28;20562;-74
2021/03/17 07:57:15;;;;;;;2.97;0.93;;;6.70;83.40;;;;;;5076531;28;20021;-74
2021/03/17 07:59:42;;;;;;;2.90;0.80;;;6.70;82.90;;;;;;5075090;28;20468;-74
2021/03/17 08:02:10;;;;;;;1.17;0.60;;;6.70;82.70;;;;;;5075113;28;20120;-74
2021/03/17 08:04:35;;;;;;;1.73;0.90;;;6.70;83.00;;;;;;5075269;28;20050;-74
2021/03/17 08:07:03;;;;;;;1.40;0.60;;;6.70;82.90;;;;;;5077150;28;20468;-74
2021/03/17 08:09:30;;;;;;;1.48;0.70;;;6.80;82.80;;;;;;5075006;28;20103;-74
2021/03/17 08:11:58;;;;;;;2.47;0.88;;;6.80;82.40;;;;;;5075180;28;20031;-74
2021/03/17 08:14:25;;;;;;;2.33;0.85;;;6.90;82.50;;;;;;5076103;28;20025;-74
2021/03/17 08:16:52;;;;;;;4.35;0.90;;;6.90;82.30;;;;;;5074992;28;20024;-74
2021/03/17 08:19:24;;;;;;;2.42;0.90;;;6.90;81.20;;;;;;5076422;28;20024;-73
2021/03/17 08:21:53;;;;;;;2.53;1.35;;;6.90;81.60;;;;;;5074715;28;20048;-74
2021/03/17 08:24:35;;;;;;;1.55;0.70;;;6.80;81.90;;;;;;5074710;28;20025;-74
2021/03/17 08:27:13;;;;;;;3.03;0.93;;;6.80;81.80;;;;;;5074588;28;20033;-74
2021/03/17 08:29:40;;;;;;;2.80;1.15;;;6.80;81.40;;;;;;5074741;28;20475;-74
2021/03/17 08:32:07;;;;;;;3.03;0.73;;;6.80;81.80;;;;;;5074824;28;20031;-74
2021/03/17 08:34:35;;;;;;;4.82;0.90;;;6.90;82.00;;;;;;5074524;28;20111;-74
2021/03/17 08:37:02;;;;;;;3.05;0.68;;;6.90;81.40;;;;;;5076150;28;20032;-74
2021/03/17 08:39:32;;;;;;;3.15;1.00;;;6.90;81.10;;;;;;5075637;28;20028;-73
2021/03/17 08:41:59;;;;;;;3.17;0.73;;;6.90;80.20;;;;;;5074408;28;20116;-74
2021/03/17 08:44:26;;;;;;;2.22;0.50;;;7.00;80.50;;;;;;5074335;28;20021;-74
2021/03/17 08:46:54;;;;;;;3.20;0.95;;;7.10;79.80;;;;;;5073373;28;20024;-73
2021/03/17 08:49:33;;;;;;;2.40;0.90;;;7.20;79.70;;;;;;5075381;28;20167;-74
2021/03/17 08:52:00;;;;;;;4.22;1.52;;;7.20;79.20;;;;;;5074073;28;20032;-73
2021/03/17 08:54:35;;;;;;;3.75;1.02;;;7.20;79.50;;;;;;5075355;28;20028;-74
2021/03/17 08:57:13;;;;;;;7.10;1.20;;;7.10;79.50;;;;;;5073876;28;20041;-74
2021/03/17 08:59:54;;;;;;;4.95;0.85;;;7.00;80.20;;;;;;5074760;28;20032;-74
2021/03/17 09:02:26;;;;;;;3.63;1.08;;;6.90;80.80;;;;;;5075141;28;20048;-73
2021/03/17 09:04:54;;;;;;;2.67;0.73;;;6.80;81.70;;;;;;5073875;28;20028;-73
2021/03/17 09:07:22;;;;;;;3.83;1.05;;;6.80;81.60;;;;;;5073883;28;20115;-73
2021/03/17 09:09:49;;;;;;;0.82;0.65;;;6.90;82.20;;;;;;5074918;28;20063;-74
2021/03/17 09:12:16;;;;;;;3.95;0.85;;;6.90;82.10;;;;;;5074905;28;20090;-74
2021/03/17 09:14:42;;;;;;;3.55;0.93;;;7.00;82.30;;;;;;5075259;28;20361;-74
2021/03/17 09:17:21;;;;;;;3.10;0.80;;;7.10;82.10;;;;;;5075024;28;20108;-73
2021/03/17 09:20:06;;;;;;;1.63;0.80;;;7.10;81.70;;;;;;5073556;28;20078;-74
2021/03/17 09:22:47;;;;;;;1.90;0.70;;;7.00;82.00;;;;;;5073506;28;20054;-73
2021/03/17 09:25:22;;;;;;;1.27;0.68;;;6.70;82.20;;;;;;5075005;28;20024;-74
2021/03/17 09:27:54;;;;;;;2.15;0.60;;;6.60;82.70;;;;;;5073716;28;20029;-74
2021/03/17 09:30:23;;;;;;;2.13;0.68;;;6.40;83.10;;;;;;5074888;28;20064;-75
2021/03/17 09:32:49;;;;;;;1.33;0.73;;;6.30;83.60;;;;;;5075200;28;20062;-73
2021/03/17 09:35:17;;;;;;;1.33;0.73;;;6.30;83.90;;;;;;5074823;28;20028;-74
2021/03/17 09:37:44;;;;;;;1.67;0.73;;;6.30;84.10;;;;;;5073348;28;20025;-73
2021/03/17 09:40:14;;;;;;;3.03;0.70;;;6.30;84.40;;;;;;5074703;28;20166;-74
2021/03/17 09:42:40;;;;;;;3.30;1.10;;;6.20;84.50;;;;;;5074514;28;20036;-74
2021/03/17 09:45:11;;;;;;;1.95;0.82;;;6.20;84.60;;;;;;5073203;28;20086;-75
2021/03/17 09:51:00;;;;;;;2.38;0.90;;;6.30;85.10;;;;;;5074282;28;20177;-74
2021/03/17 09:53:26;;;;;;;2.67;0.80;;;6.40;85.00;;;;;;5074239;28;20032;-74
2021/03/17 09:55:52;;;;;;;4.28;1.02;;;6.50;84.50;;;;;;5072986;28;20021;-74
2021/03/17 09:58:18;;;;;;;1.25;0.80;;;6.70;84.30;;;;;;5074204;28;20103;-75
2021/03/17 10:00:47;;;;;;;2.90;1.00;;;6.80;83.70;;;;;;5074434;28;20114;-74
2021/03/17 10:03:14;;;;;;;2.45;1.00;;;6.90;83.80;;;;;;5074192;28;20029;-74
2021/03/17 10:05:40;;;;;;;4.70;1.00;;;7.00;82.30;;;;;;5072824;28;20127;-75
2021/03/17 10:08:07;;;;;;;1.88;0.77;;;7.10;82.70;;;;;;5073933;28;20052;-75
2021/03/17 10:10:33;;;;;;;6.50;1.25;;;7.20;82.40;;;;;;5072741;28;20510;-75
2021/03/17 10:13:00;;;;;;;4.05;0.75;;;7.20;79.20;;;;;;5072687;28;20392;-75
2021/03/17 10:15:27;;;;;;;3.53;0.82;;;7.20;79.60;;;;;;5073608;28;20444;-75
2021/03/17 10:17:54;;;;;;;5.35;1.00;;;7.30;79.70;;;;;;5073593;28;20032;-75
2021/03/17 10:20:23;;;;;;;1.25;0.55;;;7.30;79.10;;;;;;5072060;28;20388;-75
2021/03/17 10:22:50;;;;;;;4.45;0.93;;;7.40;79.60;;;;;;5072044;28;20106;-75
2021/03/17 10:25:19;;;;;;;3.25;0.82;;;7.50;79.40;;;;;;5072140;28;20028;-75
2021/03/17 10:27:50;;;;;;;1.83;0.73;;;7.50;78.90;;;;;;5072189;28;20073;-75
2021/03/17 10:30:48;;;;;;;1.45;0.77;;;7.60;77.50;;;;;;5072206;28;20033;-75
2021/03/17 10:33:20;;;;;;;1.77;0.75;;;7.70;75.80;;;;;;5068863;28;20043;-75
2021/03/17 10:35:47;;;;;;;4.40;0.98;;;7.70;76.90;;;;;;5072706;28;20021;-74
2021/03/17 10:38:13;;;;;;;4.60;0.90;;;7.70;76.90;;;;;;5073267;28;20059;-75
2021/03/17 10:40:39;;;;;;;2.35;1.10;;;7.80;76.10;;;;;;5073675;28;20020;-75
2021/03/17 10:43:06;;;;;;;1.80;0.77;;;7.80;76.10;;;;;;5072020;28;20013;-75
2021/03/17 10:45:41;;;;;;;3.78;0.98;;;7.90;75.20;;;;;;5072610;28;20040;-75
2021/03/17 10:48:17;;;;;;;3.88;1.05;;;7.90;75.40;;;;;;5072213;28;20421;-75
2021/03/17 10:50:44;;;;;;;2.88;0.90;;;8.00;75.20;;;;;;5072273;28;20186;-76
2021/03/17 10:53:24;;;;;;;2.67;0.98;;;8.00;75.00;;;;;;5072078;28;20495;-75
2021/03/17 10:55:52;;;;;;;6.63;1.20;;;8.10;73.70;;;;;;5072002;28;20468;-76
2021/03/17 10:58:40;;;;;;;5.10;1.13;;;8.10;72.40;;;;;;5071839;28;20042;-73
2021/03/17 11:01:05;;;;;;;2.92;0.90;;;8.10;71.80;;;;;;5071929;28;20117;-74
2021/03/17 11:03:34;;;;;;;8.57;1.10;;;8.10;71.30;;;;;;5073304;28;20055;-74
2021/03/17 11:06:20;;;;;;;2.20;0.98;;;8.10;72.40;;;;;;5071698;28;20058;-74
2021/03/17 11:09:07;;;;;;;5.05;0.80;;;8.20;72.60;;;;;;5073076;28;20139;-74
2021/03/17 11:11:47;;;;;;;3.83;0.85;;;8.20;72.00;;;;;;5071257;28;20016;-74
2021/03/17 11:14:34;;;;;;;6.05;1.00;;;8.20;72.30;;;;;;5073273;28;20028;-74
2021/03/17 11:17:09;;;;;;;3.13;1.00;;;8.10;71.50;;;;;;5073022;28;20121;-74
2021/03/17 11:19:35;;;;;;;2.88;1.00;;;7.90;71.10;;;;;;5072930;28;20021;-75
2021/03/17 11:22:01;;;;;;;4.18;0.98;;;7.80;71.80;;;;;;5071293;28;20048;-74
2021/03/17 11:24:27;;;;;;;2.08;0.70;;;7.80;72.60;;;;;;5072873;28;20035;-74
2021/03/17 11:26:53;;;;;;;4.35;1.10;;;7.90;72.90;;;;;;5071438;28;20117;-74
2021/03/17 11:29:21;;;;;;;2.78;0.85;;;8.00;73.00;;;;;;5072876;28;20472;-74
2021/03/17 11:31:49;;;;;;;4.38;1.30;;;8.10;73.30;;;;;;5071360;28;20040;-74
2021/03/17 11:34:16;;;;;;;4.70;1.13;;;8.30;73.60;;;;;;5071214;28;20025;-74
2021/03/17 11:36:45;;;;;;;6.35;2.80;;;8.40;73.20;;;;;;5071092;28;20375;-74
2021/03/17 11:39:13;;;;;;;3.38;1.45;;;8.60;73.40;;;;;;5071143;28;20052;-76
2021/03/17 11:41:41;;;;;;;2.83;1.20;;;8.80;72.50;;;;;;5072529;28;20422;-75
2021/03/17 11:44:12;;;;;;;5.68;1.20;;;8.80;71.60;;;;;;5071517;28;20035;-75
2021/03/17 11:46:38;;;;;;;4.20;1.02;;;8.80;71.60;;;;;;5072503;28;20082;-73
2021/03/17 11:49:04;;;;;;;6.32;1.23;;;8.60;71.60;;;;;;5072753;28;20024;-74
2021/03/17 11:51:29;;;;;;;3.30;1.27;;;8.60;72.10;;;;;;5072162;28;20020;-74
2021/03/17 11:53:55;;;;;;;4.00;1.15;;;8.40;72.60;;;;;;5071711;28;20067;-74
2021/03/17 11:56:21;;;;;;;3.63;1.20;;;8.10;73.60;;;;;;5072349;28;20020;-74
2021/03/17 11:58:48;;;;;;;3.08;0.90;;;7.80;74.60;;;;;;5070718;28;20024;-73
2021/03/17 12:01:14;;;;;;;2.70;1.02;;;7.60;75.50;;;;;;5071189;28;20029;-74
2021/03/17 12:03:41;;;;;;;2.30;0.88;;;7.40;76.50;;;;;;5071008;28;20116;-74
2021/03/17 12:06:07;;;;;;;2.45;0.90;;;7.30;76.80;;;;;;5072351;28;20481;-74
2021/03/17 12:08:35;;;;;;;3.40;1.20;;;7.20;77.60;;;;;;5070936;28;20475;-74
2021/03/17 12:11:00;;;;;;;1.38;0.70;;;7.10;78.20;;;;;;5070990;28;20032;-74
2021/03/17 12:13:26;;;;;;;5.00;0.98;;;7.10;78.50;;;;;;5072748;28;20364;-74
2021/03/17 12:15:52;;;;;;;4.25;1.00;;;7.10;78.90;;;;;;5072465;28;20491;-74
2021/03/17 12:18:19;;;;;;;4.18;0.77;;;7.20;79.50;;;;;;5070911;28;20499;-74
2021/03/17 12:20:45;;;;;;;2.13;0.80;;;7.20;79.60;;;;;;5072169;28;20124;-74
2021/03/17 12:23:11;;;;;;;2.40;0.80;;;7.30;79.40;;;;;;5073227;28;20060;-74
2021/03/17 12:25:37;;;;;;;0.88;0.55;;;7.30;79.30;;;;;;5074330;28;20025;-74
2021/03/17 12:28:03;;;;;;;2.45;0.63;;;7.40;79.20;;;;;;5074237;28;20367;-75
2021/03/17 12:33:51;;;;;;;2.08;0.55;;;7.60;79.10;;;;;;5076248;28;20019;-74
2021/03/17 12:36:17;;;;;;;7.03;2.28;;;7.60;79.00;;;;;;5075683;28;20020;-74
2021/03/17 12:38:43;;;;;;;3.70;1.15;;;7.70;78.90;;;;;;5074262;28;20381;-74
2021/03/17 12:41:09;;;;;;;2.72;1.13;;;7.80;78.90;;;;;;5075641;28;20028;-75
2021/03/17 12:43:34;;;;;;;3.10;0.93;;;7.80;78.60;;;;;;5074316;28;20016;-74
2021/03/17 12:46:00;;;;;;;3.20;0.90;;;7.80;78.60;;;;;;5075437;28;20541;-74
2021/03/17 12:48:26;;;;;;;5.00;0.70;;;7.80;78.60;;;;;;5075445;28;20013;-74
2021/03/17 12:50:51;;;;;;;0.65;0.60;;;7.70;78.60;;;;;;5075106;28;20432;-73
2021/03/17 12:53:17;;;;;;;3.20;0.63;;;7.70;78.60;;;;;;5075148;28;20065;-74
2021/03/17 12:55:43;;;;;;;2.88;0.60;;;7.60;79.30;;;;;;5075143;28;20020;-73
2021/03/17 12:58:09;;;;;;;2.95;0.70;;;7.50;79.70;;;;;;5073788;28;20476;-73
2021/03/17 13:00:35;;;;;;;3.30;1.13;;;7.40;80.30;;;;;;5073720;28;20078;-73
2021/03/17 13:03:00;;;;;;;1.75;0.75;;;7.40;80.20;;;;;;5073692;28;20028;-74
2021/03/17 13:05:26;;;;;;;0.93;0.47;;;7.40;80.50;;;;;;5075086;28;20530;-74
2021/03/17 13:07:52;;;;;;;0.82;0.50;;;7.50;80.70;;;;;;5075221;28;20104;-73
2021/03/17 13:10:23;;;;;;;1.65;0.60;;;7.60;80.90;;;;;;5073459;28;20079;-74
2021/03/17 13:12:50;;;;;;;0.65;0.52;;;7.80;80.50;;;;;;5073555;28;20470;-74
2021/03/17 13:15:17;;;;;;;2.08;0.70;;;7.80;80.40;;;;;;5073182;28;20023;-74